createdAt,value
2022-11-25T00:00:35.572Z,99093.16
2022-11-25T00:05:38.730Z,99092.63
2022-11-25T00:10:42.937Z,99094.69
2022-11-25T00:15:45.848Z,99084.63
2022-11-25T00:20:48.790Z,99083.81
2022-11-25T00:25:53.002Z,99083.28
2022-11-25T00:30:55.930Z,99087.81
2022-11-25T00:36:01.815Z,99088.41
2022-11-25T00:41:23.444Z,99085.31
2022-11-25T00:46:26.429Z,99088.13
2022-11-25T00:51:29.342Z,99094.56
2022-11-25T00:56:33.969Z,99090.91
2022-11-25T01:01:37.845Z,99095.72
2022-11-25T01:06:40.953Z,99094.31
2022-11-25T01:11:45.220Z,99093.97
2022-11-25T01:16:48.233Z,99091.19
2022-11-25T01:21:51.340Z,99094.56
2022-11-25T01:26:56.531Z,99089.44
2022-11-25T01:31:59.461Z,99090.69
2022-11-25T01:37:02.610Z,99085.50
2022-11-25T01:42:06.921Z,99092.59
2022-11-25T01:47:16.899Z,99079.41
2022-11-25T01:52:25.932Z,99076.09
2022-11-25T01:57:36.077Z,99079.41
2022-11-25T02:02:39.272Z,99085.31
2022-11-25T02:07:45.242Z,99086.66
2022-11-25T02:12:50.211Z,99085.59
2022-11-25T02:17:53.671Z,99086.16
2022-11-25T02:23:04.268Z,99086.59
2022-11-25T02:28:11.881Z,99079.56
2022-11-25T02:33:15.479Z,99080.56
2022-11-25T02:38:22.167Z,99085.66
2022-11-25T02:43:27.289Z,99084.88
2022-11-25T02:49:06.935Z,99085.53
2022-11-25T02:53:57.191Z,99084.25
2022-11-25T02:59:03.484Z,99081.22
2022-11-25T03:04:07.283Z,99079.16
2022-11-25T03:09:10.239Z,99080.88
2022-11-25T03:14:16.046Z,99083.38
2022-11-25T03:19:19.460Z,99096.47
2022-11-25T03:24:22.355Z,99088.31
2022-11-25T03:29:27.466Z,99091.78
2022-11-25T03:34:30.433Z,99087.75
2022-11-25T03:39:34.553Z,99099.31
2022-11-25T03:44:39.143Z,99102.91
2022-11-25T03:49:42.136Z,99097.53
2022-11-25T03:54:46.412Z,99098.72
2022-11-25T03:59:56.466Z,99099.09
2022-11-25T04:04:59.619Z,99101.22
2022-11-25T04:10:03.567Z,99115.56
2022-11-25T04:15:11.106Z,99105.16
2022-11-25T04:20:16.417Z,99104.72
2022-11-25T04:25:23.981Z,99108.84
2022-11-25T04:30:29.489Z,99113.88
2022-11-25T04:35:32.569Z,99123.22
2022-11-25T04:40:35.681Z,99119.00
2022-11-25T04:46:13.052Z,99110.38
2022-11-25T04:51:15.444Z,99123.84
2022-11-25T04:56:20.645Z,99116.13
2022-11-25T05:01:27.581Z,99122.81
2022-11-25T05:06:38.553Z,99108.50
2022-11-25T05:11:42.563Z,99103.06
2022-11-25T05:16:47.103Z,99113.19
2022-11-25T05:21:50.446Z,99103.75
2022-11-25T05:26:54.519Z,99110.81
2022-11-25T05:31:59.088Z,99098.81
2022-11-25T05:37:02.152Z,99101.41
2022-11-25T05:42:06.258Z,99112.41
2022-11-25T05:47:10.673Z,99111.22
2022-11-25T05:52:15.466Z,99129.88
2022-11-25T05:57:26.870Z,99119.44
2022-11-25T06:02:35.244Z,99125.00
2022-11-25T06:07:38.296Z,99129.59
2022-11-25T06:12:41.430Z,99127.66
2022-11-25T06:17:46.255Z,99132.88
2022-11-25T06:22:55.381Z,99134.66
2022-11-25T06:28:12.966Z,99143.94
2022-11-25T06:33:20.508Z,99149.44
2022-11-25T06:38:24.833Z,99151.41
2022-11-25T06:43:27.761Z,99162.91
2022-11-25T06:48:32.180Z,99157.91
2022-11-25T06:53:36.041Z,99155.31
2022-11-25T06:58:40.317Z,99157.28
2022-11-25T07:03:45.783Z,99166.66
2022-11-25T07:08:49.596Z,99174.09
2022-11-25T07:13:54.144Z,99178.00
2022-11-25T07:19:00.123Z,99185.28
2022-11-25T07:24:05.530Z,99197.44
2022-11-25T07:29:36.425Z,99194.13
2022-11-25T07:34:36.207Z,99196.69
2022-11-25T07:39:39.539Z,99201.03
2022-11-25T07:44:42.654Z,99194.31
2022-11-25T07:50:08.938Z,99199.34
2022-11-25T07:55:11.831Z,99189.34
2022-11-25T08:00:16.166Z,99193.56
2022-11-25T08:05:20.479Z,99194.81
2022-11-25T08:10:23.437Z,99193.88
2022-11-25T08:15:26.384Z,99197.63
2022-11-25T08:20:31.486Z,99190.31
2022-11-25T08:25:34.660Z,99197.13
2022-11-25T08:30:37.722Z,99199.06
2022-11-25T08:35:42.101Z,99204.56
2022-11-25T08:40:46.715Z,99204.88
2022-11-25T08:45:49.847Z,99217.84
2022-11-25T08:50:56.126Z,99213.53
2022-11-25T08:55:59.172Z,99209.47
2022-11-25T09:01:02.839Z,99203.06
2022-11-25T09:06:08.383Z,99199.69
2022-11-25T09:11:12.078Z,99194.25
2022-11-25T09:16:15.280Z,99204.88
2022-11-25T09:21:19.851Z,99198.78
2022-11-25T09:26:26.036Z,99195.47
2022-11-25T09:31:29.370Z,99202.28
2022-11-25T09:36:33.727Z,99211.59
2022-11-25T09:42:23.020Z,99197.47
2022-11-25T09:47:45.226Z,99200.56
2022-11-25T09:53:04.009Z,99200.25
2022-11-25T09:58:17.602Z,99203.25
2022-11-25T10:03:30.402Z,99203.59
2022-11-25T10:08:39.172Z,99206.44
2022-11-25T10:13:49.266Z,99204.44
2022-11-25T10:18:59.034Z,99199.47
2022-11-25T10:24:04.944Z,99193.16
2022-11-25T10:29:24.096Z,99199.34
2022-11-25T10:34:35.174Z,99189.56
2022-11-25T10:39:39.990Z,99202.75
2022-11-25T10:44:43.407Z,99187.19
2022-11-25T10:50:00.781Z,99192.03
2022-11-25T10:55:12.985Z,99191.22
2022-11-25T11:00:31.633Z,99185.41
2022-11-25T11:05:34.796Z,99181.84
2022-11-25T11:10:39.840Z,99183.88
2022-11-25T11:15:48.039Z,99180.34
2022-11-25T11:20:54.101Z,99182.78
2022-11-25T11:26:04.361Z,99170.69
2022-11-25T11:31:18.174Z,99164.66
2022-11-25T11:36:35.618Z,99157.22
2022-11-25T11:41:45.616Z,99153.00
2022-11-25T11:47:02.477Z,99158.47
2022-11-25T11:52:12.482Z,99154.03
2022-11-25T11:57:29.129Z,99152.19
2022-11-25T12:02:41.787Z,99157.84
2022-11-25T12:07:53.192Z,99154.63
2022-11-25T12:13:07.381Z,99155.22
2022-11-25T12:18:21.854Z,99152.00
2022-11-25T12:23:30.355Z,99144.94
2022-11-25T12:28:41.353Z,99138.69
2022-11-25T12:33:53.492Z,99149.97
2022-11-25T12:39:02.902Z,99140.53
2022-11-25T12:44:14.224Z,99139.31
2022-11-25T12:49:22.665Z,99136.09
2022-11-25T12:54:38.055Z,99143.75
2022-11-25T13:00:25.416Z,99143.13
2022-11-25T13:05:43.334Z,99143.38
2022-11-25T13:11:09.163Z,99151.78
2022-11-25T13:16:14.738Z,99156.03
2022-11-25T13:21:20.016Z,99160.84
2022-11-25T13:26:53.024Z,99171.94
2022-11-25T13:31:59.913Z,99169.50
2022-11-25T13:37:24.087Z,99172.53
2022-11-25T13:42:29.091Z,99175.59
2022-11-25T13:47:36.326Z,99182.41
2022-11-25T13:52:42.885Z,99180.78
2022-11-25T13:57:49.879Z,99183.00
2022-11-25T14:02:52.872Z,99177.41
2022-11-25T14:08:10.305Z,99176.41
2022-11-25T14:13:42.483Z,99188.06
2022-11-25T14:19:35.065Z,99195.59
2022-11-25T14:24:35.320Z,99208.13
2022-11-25T14:29:42.966Z,99206.94
2022-11-25T14:34:49.790Z,99212.75
2022-11-25T14:39:59.012Z,99231.41
2022-11-25T14:45:03.403Z,99226.59
2022-11-25T14:55:38.220Z,99255.13
2022-11-25T15:00:53.091Z,99251.75
2022-11-25T15:05:58.224Z,99245.34
2022-11-25T15:11:03.470Z,99245.94
2022-11-25T15:16:13.520Z,99248.56
2022-11-25T15:21:18.600Z,99256.00
2022-11-25T15:26:23.618Z,99254.31
2022-11-25T15:31:31.200Z,99254.19
2022-11-25T15:36:34.577Z,99272.72
2022-11-25T15:41:38.093Z,99290.13
2022-11-25T15:46:42.668Z,99284.13
2022-11-25T15:51:52.483Z,99282.72
2022-11-25T15:56:59.112Z,99299.56
2022-11-25T16:02:03.556Z,99294.66
2022-11-25T16:07:23.404Z,99295.03
2022-11-25T16:12:26.364Z,99298.63
2022-11-25T16:17:31.667Z,99322.25
2022-11-25T16:22:34.616Z,99329.34
2022-11-25T16:27:38.626Z,99327.78
2022-11-25T16:32:42.902Z,99331.56
2022-11-25T16:37:49.101Z,99323.09
2022-11-25T16:42:53.389Z,99326.47
2022-11-25T16:47:57.669Z,99324.81
2022-11-25T16:53:01.488Z,99333.13
2022-11-25T16:58:10.137Z,99335.03
2022-11-25T17:03:14.554Z,99332.78
2022-11-25T17:08:17.568Z,99331.81
2022-11-25T17:13:23.252Z,99330.28
2022-11-25T17:18:27.809Z,99340.72
2022-11-25T17:23:30.703Z,99352.03
2022-11-25T17:28:33.740Z,99346.28
2022-11-25T17:33:39.866Z,99358.63
2022-11-25T17:38:42.782Z,99359.25
2022-11-25T17:43:47.499Z,99363.41
2022-11-25T17:48:51.933Z,99360.34
2022-11-25T17:53:54.851Z,99370.25
2022-11-25T17:59:07.373Z,99372.13
2022-11-25T18:04:23.101Z,99380.91
2022-11-25T18:09:26.032Z,99382.91
2022-11-25T18:14:33.211Z,99387.41
2022-11-25T18:19:37.546Z,99406.72
2022-11-25T18:24:41.135Z,99403.94
2022-11-25T18:29:44.423Z,99410.63
2022-11-25T18:34:48.661Z,99407.03
2022-11-25T18:39:51.622Z,99420.44
2022-11-25T18:44:56.124Z,99420.66
2022-11-25T18:50:00.497Z,99429.53
2022-11-25T18:55:03.424Z,99424.88
2022-11-25T19:00:31.078Z,99437.97
2022-11-25T19:05:33.579Z,99446.78
2022-11-25T19:10:38.654Z,99452.34
2022-11-25T19:15:43.739Z,99450.44
2022-11-25T19:20:48.030Z,99457.72
2022-11-25T19:25:51.073Z,99457.28
2022-11-25T19:30:58.958Z,99455.03
2022-11-25T19:36:03.416Z,99475.88
2022-11-25T19:41:06.538Z,99477.88
2022-11-25T19:46:29.159Z,99486.34
2022-11-25T19:51:35.846Z,99494.63
2022-11-25T19:56:40.124Z,99494.09
2022-11-25T20:01:45.441Z,99507.75
2022-11-25T20:06:50.493Z,99508.25
2022-11-25T20:11:58.575Z,99513.84
2022-11-25T20:17:01.603Z,99522.66
2022-11-25T20:22:06.041Z,99533.56
2022-11-25T20:27:11.233Z,99536.63
2022-11-25T20:32:21.048Z,99560.47
2022-11-25T20:37:26.241Z,99557.16
2022-11-25T20:42:29.136Z,99561.72
2022-11-25T20:47:32.274Z,99562.69
2022-11-25T20:52:38.766Z,99575.22
2022-11-25T20:57:41.754Z,99577.09
2022-11-25T21:02:44.709Z,99583.22
2022-11-25T21:07:50.856Z,99585.94
2022-11-25T21:12:54.862Z,99592.69
2022-11-25T21:17:58.526Z,99605.13
2022-11-25T21:23:06.573Z,99606.81
2022-11-25T21:28:16.335Z,99598.81
2022-11-25T21:33:19.375Z,99612.31
2022-11-25T21:38:26.164Z,99628.97
2022-11-25T21:43:33.091Z,99622.22
2022-11-25T21:48:36.647Z,99624.13
2022-11-25T21:53:41.598Z,99627.78
2022-11-25T21:58:44.998Z,99639.88
2022-11-25T22:03:47.931Z,99642.59
2022-11-25T22:08:52.496Z,99637.75
2022-11-25T22:13:55.475Z,99647.59
2022-11-25T22:18:59.133Z,99655.00
2022-11-25T22:24:06.784Z,99653.97
2022-11-25T22:29:14.002Z,99658.22
2022-11-25T22:34:19.385Z,99672.63
2022-11-25T22:39:25.529Z,99668.66
2022-11-25T22:44:33.672Z,99684.44
2022-11-25T22:49:41.455Z,99685.13
2022-11-25T22:54:45.717Z,99694.81
2022-11-25T22:59:48.666Z,99699.53
2022-11-25T23:04:53.639Z,99710.06
2022-11-25T23:09:57.957Z,99706.81
2022-11-25T23:15:00.885Z,99712.88
2022-11-25T23:20:03.906Z,99712.09
2022-11-25T23:25:14.806Z,99711.88
2022-11-25T23:30:19.527Z,99721.31
2022-11-25T23:35:28.692Z,99722.34
2022-11-25T23:40:33.414Z,99718.88
2022-11-25T23:45:36.363Z,99723.78
2022-11-25T23:50:39.256Z,99729.97
2022-11-25T23:55:43.691Z,99738.16
